Time;durP1;ratioP1;P1;durP2;ratioP2;P2;SDS_P1;SDS_P2;PMS_P1;PMS_P2;Temp;Humidity;BMP_temperature;BMP_pressure;BME280_temperature;BME280_humidity;BME280_pressure;Samples;Min_cycle;Max_cycle;Signal;HPM_P1;HPM_P2
2022/03/13 00:00:36;;;;;;;20.07;11.60;;;;;;;;;;5035869;28;20294;-66
2022/03/13 00:03:08;;;;;;;21.90;12.00;;;;;;;;;;5028887;28;20259;-67
2022/03/13 00:05:37;;;;;;;21.55;11.30;;;;;;;;;;5032911;28;20327;-67
2022/03/13 00:08:15;;;;;;;21.77;11.50;;;;;;;;;;5038703;28;20775;-67
2022/03/13 00:10:41;;;;;;;19.47;11.33;;;;;;;;;;5030953;28;20332;-67
2022/03/13 00:13:09;;;;;;;21.00;11.10;;;;;;;;;;5037146;28;20208;-67
2022/03/13 00:15:35;;;;;;;20.90;11.23;;;;;;;;;;5034851;28;22148;-67
2022/03/13 00:18:02;;;;;;;17.77;11.27;;;;;;;;;;5034264;28;20197;-67
2022/03/13 00:20:28;;;;;;;19.20;11.53;;;;;;;;;;5038005;28;20684;-67
2022/03/13 00:22:57;;;;;;;17.87;10.07;;;;;;;;;;5040354;28;20292;-67
2022/03/13 00:25:22;;;;;;;18.57;10.73;;;;;;;;;;5042345;28;20244;-67
2022/03/13 00:27:47;;;;;;;21.67;10.93;;;;;;;;;;5036618;28;20264;-67
2022/03/13 00:30:13;;;;;;;18.30;10.37;;;;;;;;;;5026327;28;20196;-67
2022/03/13 00:32:39;;;;;;;17.95;10.10;;;;;;;;;;5026108;28;20182;-67
2022/03/13 00:35:05;;;;;;;18.20;10.80;;;;;;;;;;5038581;28;20181;-67
2022/03/13 00:37:30;;;;;;;18.00;10.70;;;;;;;;;;5042982;28;20698;-67
2022/03/13 00:39:56;;;;;;;22.08;10.85;;;;;;;;;;5033137;28;20603;-67
2022/03/13 00:42:24;;;;;;;18.20;10.20;;;;;;;;;;5036931;28;20593;-67
2022/03/13 00:44:50;;;;;;;21.07;10.73;;;;;;;;;;5036179;28;20190;-67
2022/03/13 00:47:18;;;;;;;17.93;10.57;;;;;;;;;;5025255;28;20240;-67
2022/03/13 00:49:44;;;;;;;18.50;10.17;;;;;;;;;;5021152;28;20191;-66
2022/03/13 00:52:09;;;;;;;16.57;10.00;;;;;;;;;;5029694;28;20243;-66
2022/03/13 00:54:34;;;;;;;18.53;10.03;;;;;;;;;;5027681;28;20174;-66
2022/03/13 00:57:00;;;;;;;15.57;10.47;;;;;;;;;;5016690;28;20191;-67
2022/03/13 00:59:25;;;;;;;14.40;9.50;;;;;;;;;;5017824;28;20291;-67
2022/03/13 01:01:50;;;;;;;15.87;9.53;;;;;;;;;;5029430;28;20703;-67
2022/03/13 01:04:16;;;;;;;19.50;10.13;;;;;;;;;;5031330;28;20220;-67
2022/03/13 01:06:43;;;;;;;15.50;9.80;;;;;;;;;;5012042;28;20186;-67
2022/03/13 01:09:08;;;;;;;21.95;10.68;;;;;;;;;;5020606;28;20318;-67
2022/03/13 01:11:34;;;;;;;18.75;10.25;;;;;;;;;;5012891;28;20179;-67
2022/03/13 01:13:59;;;;;;;17.45;10.20;;;;;;;;;;5017031;28;20531;-68
2022/03/13 01:16:27;;;;;;;18.95;10.45;;;;;;;;;;5023213;28;20710;-67
2022/03/13 01:19:01;;;;;;;20.17;9.88;;;;;;;;;;5022952;28;20186;-67
2022/03/13 01:21:27;;;;;;;18.00;10.23;;;;;;;;;;5021995;28;20189;-67
2022/03/13 01:24:05;;;;;;;17.63;9.57;;;;;;;;;;5034335;28;20205;-67
2022/03/13 01:26:34;;;;;;;16.27;9.98;;;;;;;;;;5028441;28;20178;-67
2022/03/13 01:29:01;;;;;;;18.63;10.37;;;;;;;;;;5027870;28;20197;-67
2022/03/13 01:31:32;;;;;;;16.25;9.85;;;;;;;;;;5020487;28;20812;-67
2022/03/13 01:33:58;;;;;;;18.83;10.13;;;;;;;;;;5025268;28;20234;-66
2022/03/13 01:36:25;;;;;;;16.48;9.77;;;;;;;;;;5023954;28;20556;-67
2022/03/13 01:38:55;;;;;;;17.63;10.77;;;;;;;;;;5027753;28;20186;-67
2022/03/13 01:41:23;;;;;;;20.90;10.10;;;;;;;;;;5017899;28;20747;-67
2022/03/13 01:43:48;;;;;;;16.83;9.68;;;;;;;;;;5030896;28;20303;-67
2022/03/13 01:46:15;;;;;;;18.13;10.20;;;;;;;;;;5017813;28;20224;-68
2022/03/13 01:49:03;;;;;;;17.73;9.80;;;;;;;;;;5034132;28;20178;-67
2022/03/13 01:51:31;;;;;;;20.85;11.10;;;;;;;;;;5026415;28;20177;-66
2022/03/13 01:53:58;;;;;;;17.27;10.13;;;;;;;;;;5027095;28;20174;-67
2022/03/13 01:56:25;;;;;;;17.20;10.05;;;;;;;;;;5023320;28;20174;-67
2022/03/13 01:58:53;;;;;;;17.80;10.03;;;;;;;;;;5027315;28;20178;-67
2022/03/13 02:01:20;;;;;;;16.50;9.83;;;;;;;;;;5022703;28;20214;-67
2022/03/13 02:03:45;;;;;;;18.92;10.25;;;;;;;;;;5030332;28;20206;-67
2022/03/13 02:06:11;;;;;;;17.53;10.00;;;;;;;;;;5015762;28;20332;-67
2022/03/13 02:08:39;;;;;;;17.40;10.07;;;;;;;;;;5043372;28;20240;-67
2022/03/13 02:11:05;;;;;;;17.77;9.60;;;;;;;;;;5024235;28;20192;-67
2022/03/13 02:13:34;;;;;;;17.23;9.90;;;;;;;;;;5020428;28;20676;-67
2022/03/13 02:16:00;;;;;;;15.87;10.23;;;;;;;;;;5040845;28;20189;-67
2022/03/13 02:18:26;;;;;;;22.13;11.05;;;;;;;;;;5026651;28;20186;-67
2022/03/13 02:20:52;;;;;;;16.57;10.47;;;;;;;;;;5017362;28;20576;-67
2022/03/13 02:23:27;;;;;;;19.07;10.90;;;;;;;;;;5026419;28;20689;-67
2022/03/13 02:25:58;;;;;;;18.85;10.27;;;;;;;;;;5013202;28;20181;-67
2022/03/13 02:28:36;;;;;;;18.40;10.37;;;;;;;;;;5022015;28;20213;-67
2022/03/13 02:31:11;;;;;;;16.13;10.00;;;;;;;;;;5015141;28;20198;-67
2022/03/13 02:33:36;;;;;;;16.73;10.02;;;;;;;;;;5023657;28;20189;-66
2022/03/13 02:36:05;;;;;;;21.80;10.70;;;;;;;;;;5022845;28;20708;-67
2022/03/13 02:38:31;;;;;;;19.37;10.63;;;;;;;;;;5019338;28;20213;-67
2022/03/13 02:40:58;;;;;;;17.43;10.87;;;;;;;;;;5027945;28;20186;-67
2022/03/13 02:43:24;;;;;;;18.40;9.53;;;;;;;;;;5018722;28;20270;-68
2022/03/13 02:45:52;;;;;;;18.00;10.10;;;;;;;;;;5026906;28;20186;-68
2022/03/13 02:48:18;;;;;;;19.20;10.77;;;;;;;;;;5026399;28;20194;-67
2022/03/13 02:50:44;;;;;;;18.43;10.70;;;;;;;;;;5025445;28;20244;-67
2022/03/13 02:53:10;;;;;;;17.43;10.23;;;;;;;;;;5026439;28;20662;-66
2022/03/13 02:55:36;;;;;;;20.13;11.27;;;;;;;;;;5027781;28;20195;-67
2022/03/13 02:58:02;;;;;;;18.80;11.60;;;;;;;;;;5025154;28;20189;-67
2022/03/13 03:00:59;;;;;;;16.27;10.03;;;;;;;;;;5035134;28;20247;-67
2022/03/13 03:03:26;;;;;;;19.47;11.23;;;;;;;;;;5045122;28;20245;-67
2022/03/13 03:05:52;;;;;;;19.63;11.43;;;;;;;;;;5023814;28;20280;-67
2022/03/13 03:08:18;;;;;;;19.30;11.33;;;;;;;;;;5014406;28;20234;-67
2022/03/13 03:10:43;;;;;;;20.87;11.07;;;;;;;;;;5025380;28;20510;-67
2022/03/13 03:13:10;;;;;;;19.57;10.90;;;;;;;;;;5023604;28;20194;-66
2022/03/13 03:15:36;;;;;;;19.47;10.87;;;;;;;;;;5024988;28;20182;-66
2022/03/13 03:18:03;;;;;;;18.63;10.87;;;;;;;;;;5026996;28;20245;-67
2022/03/13 03:20:28;;;;;;;22.20;11.63;;;;;;;;;;5035158;28;20213;-67
2022/03/13 03:22:54;;;;;;;20.20;11.80;;;;;;;;;;5026196;28;20190;-67
2022/03/13 03:25:25;;;;;;;20.40;11.30;;;;;;;;;;5017835;28;20637;-67
2022/03/13 03:27:51;;;;;;;19.43;11.20;;;;;;;;;;5016884;28;20190;-68
2022/03/13 03:30:22;;;;;;;21.20;10.77;;;;;;;;;;5040642;28;20739;-68
2022/03/13 03:32:48;;;;;;;18.63;10.67;;;;;;;;;;5012555;28;20193;-66
2022/03/13 03:35:19;;;;;;;21.43;11.70;;;;;;;;;;5030018;28;20205;-67
2022/03/13 03:37:48;;;;;;;22.23;11.33;;;;;;;;;;5018429;28;20205;-66
2022/03/13 03:40:13;;;;;;;20.80;11.53;;;;;;;;;;5031763;28;20626;-66
2022/03/13 03:42:40;;;;;;;20.17;11.07;;;;;;;;;;5021479;28;20269;-67
2022/03/13 03:45:06;;;;;;;18.40;11.03;;;;;;;;;;5024038;28;20296;-67
2022/03/13 03:47:31;;;;;;;20.30;11.53;;;;;;;;;;5016557;28;20227;-66
2022/03/13 03:49:56;;;;;;;19.80;11.27;;;;;;;;;;5020652;28;20721;-67
2022/03/13 03:52:22;;;;;;;20.33;12.17;;;;;;;;;;5021565;28;20213;-66
2022/03/13 03:54:47;;;;;;;19.00;11.50;;;;;;;;;;5023452;28;20182;-66
2022/03/13 03:57:13;;;;;;;20.27;11.90;;;;;;;;;;5021488;28;20697;-67
2022/03/13 03:59:38;;;;;;;17.93;10.60;;;;;;;;;;5026192;28;20190;-67
2022/03/13 04:02:03;;;;;;;22.23;11.87;;;;;;;;;;5024787;28;20190;-66
2022/03/13 04:04:29;;;;;;;20.50;11.90;;;;;;;;;;5019993;28;20624;-67
2022/03/13 04:06:54;;;;;;;20.27;11.73;;;;;;;;;;5031542;28;20192;-67
2022/03/13 04:09:20;;;;;;;22.93;11.70;;;;;;;;;;5017951;28;20235;-66
2022/03/13 04:11:46;;;;;;;21.63;10.93;;;;;;;;;;5031259;28;20185;-67
2022/03/13 04:14:12;;;;;;;20.77;11.23;;;;;;;;;;5011623;28;20525;-67
2022/03/13 04:16:38;;;;;;;19.27;11.30;;;;;;;;;;5022379;28;20208;-67
2022/03/13 04:19:03;;;;;;;21.10;12.27;;;;;;;;;;5019952;28;20563;-67
2022/03/13 04:21:29;;;;;;;24.80;12.63;;;;;;;;;;5015904;28;20242;-66
2022/03/13 04:23:54;;;;;;;20.87;12.47;;;;;;;;;;5035830;28;20576;-66
2022/03/13 04:26:22;;;;;;;22.10;12.40;;;;;;;;;;5020844;28;20183;-67
2022/03/13 04:28:49;;;;;;;18.63;12.13;;;;;;;;;;5031074;28;20194;-67
2022/03/13 04:31:15;;;;;;;21.80;11.83;;;;;;;;;;5034489;28;20209;-67
2022/03/13 04:33:41;;;;;;;20.93;12.43;;;;;;;;;;5030561;28;20513;-67
2022/03/13 04:36:12;;;;;;;20.10;11.23;;;;;;;;;;5040931;28;20258;-67
2022/03/13 04:38:38;;;;;;;21.83;12.03;;;;;;;;;;5036103;28;20189;-67
2022/03/13 04:41:04;;;;;;;20.60;11.73;;;;;;;;;;5041210;28;20608;-67
2022/03/13 04:43:29;;;;;;;21.53;11.73;;;;;;;;;;5031572;28;20486;-67
2022/03/13 04:45:54;;;;;;;21.93;11.90;;;;;;;;;;5040611;28;20197;-67
2022/03/13 04:48:20;;;;;;;18.93;11.50;;;;;;;;;;5036522;28;20559;-67
2022/03/13 04:50:46;;;;;;;19.53;11.73;;;;;;;;;;5040189;28;20193;-66
2022/03/13 04:53:13;;;;;;;22.70;11.70;;;;;;;;;;5032516;28;20190;-66
2022/03/13 04:55:38;;;;;;;21.33;12.03;;;;;;;;;;5033991;28;20231;-67
2022/03/13 04:58:04;;;;;;;21.27;12.03;;;;;;;;;;5015103;28;20190;-67
2022/03/13 05:00:30;;;;;;;20.13;11.83;;;;;;;;;;5029809;28;20182;-67
2022/03/13 05:02:55;;;;;;;23.50;13.20;;;;;;;;;;5040852;28;20532;-67
2022/03/13 05:05:22;;;;;;;23.33;12.77;;;;;;;;;;5041592;28;20180;-67
2022/03/13 05:07:49;;;;;;;22.23;12.30;;;;;;;;;;5033765;28;20246;-66
2022/03/13 05:10:16;;;;;;;21.80;12.37;;;;;;;;;;5041348;28;20229;-67
2022/03/13 05:12:43;;;;;;;24.80;12.67;;;;;;;;;;5040287;28;20185;-67
2022/03/13 05:15:09;;;;;;;24.70;13.53;;;;;;;;;;5025092;28;20657;-67
2022/03/13 05:17:34;;;;;;;23.80;12.67;;;;;;;;;;5033293;28;20212;-66
2022/03/13 05:19:59;;;;;;;22.27;12.77;;;;;;;;;;5039686;28;20500;-66
2022/03/13 05:22:25;;;;;;;22.43;12.30;;;;;;;;;;5045456;28;20239;-67
2022/03/13 05:24:50;;;;;;;23.03;12.50;;;;;;;;;;5029117;28;20727;-66
2022/03/13 05:27:15;;;;;;;22.23;12.13;;;;;;;;;;5039742;28;20668;-67
2022/03/13 05:29:40;;;;;;;21.03;12.13;;;;;;;;;;5029090;28;20273;-67
2022/03/13 05:32:06;;;;;;;20.93;11.93;;;;;;;;;;5032298;28;20245;-66
2022/03/13 05:34:32;;;;;;;20.07;12.10;;;;;;;;;;5028729;28;20189;-67
2022/03/13 05:36:57;;;;;;;20.30;11.97;;;;;;;;;;5031644;28;21828;-67
2022/03/13 05:39:22;;;;;;;24.23;12.33;;;;;;;;;;5029612;28;20197;-67
2022/03/13 05:41:48;;;;;;;20.60;11.63;;;;;;;;;;5028772;28;20193;-66
2022/03/13 05:44:14;;;;;;;22.97;12.67;;;;;;;;;;5029613;28;20232;-67
2022/03/13 05:46:39;;;;;;;24.57;13.53;;;;;;;;;;5023558;28;20556;-66
2022/03/13 05:49:05;;;;;;;22.83;12.87;;;;;;;;;;5030737;28;20194;-66
2022/03/13 05:51:36;;;;;;;23.80;12.90;;;;;;;;;;5041780;28;20246;-67
2022/03/13 05:54:04;;;;;;;23.93;12.00;;;;;;;;;;5022505;28;20183;-66
2022/03/13 05:56:30;;;;;;;20.90;12.13;;;;;;;;;;5023177;28;20205;-67
2022/03/13 05:58:55;;;;;;;22.30;12.20;;;;;;;;;;5026033;28;20216;-66
2022/03/13 06:01:20;;;;;;;24.63;13.37;;;;;;;;;;5037746;28;20181;-67
2022/03/13 06:03:46;;;;;;;23.27;13.00;;;;;;;;;;5027510;28;20525;-68
2022/03/13 06:06:12;;;;;;;23.87;13.00;;;;;;;;;;5027095;28;20649;-66
2022/03/13 06:08:37;;;;;;;30.03;13.20;;;;;;;;;;5038641;28;20232;-66
2022/03/13 06:11:03;;;;;;;21.17;11.97;;;;;;;;;;5033625;28;20190;-67
2022/03/13 06:13:30;;;;;;;23.00;12.20;;;;;;;;;;5028339;28;20205;-67
2022/03/13 06:15:57;;;;;;;24.27;13.03;;;;;;;;;;5031471;28;20193;-67
2022/03/13 06:18:23;;;;;;;23.90;12.67;;;;;;;;;;5041577;28;20549;-67
2022/03/13 06:20:49;;;;;;;21.50;12.57;;;;;;;;;;5039540;28;20182;-67
2022/03/13 06:23:16;;;;;;;23.03;12.27;;;;;;;;;;5041338;28;20237;-67
2022/03/13 06:25:43;;;;;;;22.30;12.40;;;;;;;;;;5044671;28;20189;-67
2022/03/13 06:28:09;;;;;;;22.17;12.53;;;;;;;;;;5037704;28;20638;-67
2022/03/13 06:30:34;;;;;;;22.63;12.67;;;;;;;;;;5045972;28;20241;-67
2022/03/13 06:32:59;;;;;;;24.40;13.03;;;;;;;;;;5037863;28;20577;-67
2022/03/13 06:35:25;;;;;;;20.90;12.43;;;;;;;;;;5035986;28;21602;-67
2022/03/13 06:37:52;;;;;;;23.47;12.53;;;;;;;;;;5041378;28;20208;-67
2022/03/13 06:40:19;;;;;;;23.17;12.23;;;;;;;;;;5037400;28;20272;-67
2022/03/13 06:42:46;;;;;;;22.97;12.53;;;;;;;;;;5038604;28;20538;-67
2022/03/13 06:45:13;;;;;;;20.80;11.93;;;;;;;;;;5041933;28;20209;-66
2022/03/13 06:47:39;;;;;;;20.77;11.80;;;;;;;;;;5041499;28;20558;-67
2022/03/13 06:50:05;;;;;;;20.47;11.00;;;;;;;;;;5040576;28;20178;-67
2022/03/13 06:52:30;;;;;;;20.37;11.33;;;;;;;;;;5042454;28;20267;-66
2022/03/13 06:54:55;;;;;;;17.93;11.50;;;;;;;;;;5040160;28;20181;-66
2022/03/13 06:57:21;;;;;;;24.50;12.50;;;;;;;;;;5044611;28;20260;-67
2022/03/13 06:59:46;;;;;;;17.30;10.83;;;;;;;;;;5041121;28;20232;-66
2022/03/13 07:02:13;;;;;;;16.93;10.90;;;;;;;;;;5044018;28;20220;-65
2022/03/13 07:04:38;;;;;;;19.27;10.93;;;;;;;;;;5037029;28;20197;-69
2022/03/13 07:07:04;;;;;;;20.50;11.33;;;;;;;;;;5043833;28;20285;-66
2022/03/13 07:09:30;;;;;;;22.98;11.85;;;;;;;;;;5040708;28;20232;-66
2022/03/13 07:11:55;;;;;;;19.80;11.60;;;;;;;;;;5043602;28;20190;-66
2022/03/13 07:14:21;;;;;;;21.37;11.63;;;;;;;;;;5038084;28;20517;-66
2022/03/13 07:16:47;;;;;;;18.83;10.67;;;;;;;;;;5043042;28;20182;-65
2022/03/13 07:19:13;;;;;;;19.20;11.27;;;;;;;;;;5044286;28;20602;-66
2022/03/13 07:21:38;;;;;;;19.37;11.10;;;;;;;;;;5042730;28;20178;-66
2022/03/13 07:24:04;;;;;;;22.58;11.65;;;;;;;;;;5042559;28;20201;-67
2022/03/13 07:26:30;;;;;;;19.77;10.90;;;;;;;;;;5042072;28;20185;-67
2022/03/13 07:28:55;;;;;;;21.30;11.23;;;;;;;;;;5042382;28;20534;-67
2022/03/13 07:31:20;;;;;;;20.52;11.27;;;;;;;;;;5040855;28;20201;-67
2022/03/13 07:33:46;;;;;;;21.05;10.80;;;;;;;;;;5041131;28;20252;-67
2022/03/13 07:36:11;;;;;;;18.20;9.80;;;;;;;;;;5037246;28;20280;-66
2022/03/13 07:38:37;;;;;;;20.30;11.48;;;;;;;;;;5037920;28;20580;-66
2022/03/13 07:41:03;;;;;;;20.13;11.07;;;;;;;;;;5036736;28;20612;-67
2022/03/13 07:43:29;;;;;;;21.15;10.88;;;;;;;;;;5038942;28;20205;-67
2022/03/13 07:45:54;;;;;;;18.60;10.55;;;;;;;;;;5035781;28;20491;-67
2022/03/13 07:48:19;;;;;;;17.90;10.32;;;;;;;;;;5037271;28;20189;-66
2022/03/13 07:50:45;;;;;;;20.08;10.38;;;;;;;;;;5038167;28;20193;-67
2022/03/13 07:53:10;;;;;;;17.75;10.10;;;;;;;;;;5042358;28;20200;-67
2022/03/13 07:55:35;;;;;;;20.90;10.13;;;;;;;;;;5035216;28;20193;-66
2022/03/13 07:58:01;;;;;;;18.67;9.55;;;;;;;;;;5039074;28;20213;-67
2022/03/13 08:00:26;;;;;;;15.38;9.68;;;;;;;;;;5039204;28;20223;-67
2022/03/13 08:02:53;;;;;;;17.47;10.13;;;;;;;;;;5040838;28;20336;-67
2022/03/13 08:05:21;;;;;;;16.27;9.80;;;;;;;;;;5033973;28;20236;-67
2022/03/13 08:07:47;;;;;;;17.15;9.77;;;;;;;;;;5043191;28;20509;-67
2022/03/13 08:10:13;;;;;;;17.85;10.13;;;;;;;;;;5035034;28;20270;-67
2022/03/13 08:12:39;;;;;;;16.73;9.45;;;;;;;;;;5021191;28;20178;-65
2022/03/13 08:15:08;;;;;;;18.52;10.35;;;;;;;;;;5021477;28;20178;-65
2022/03/13 08:17:35;;;;;;;18.52;10.02;;;;;;;;;;5030484;28;20177;-66
2022/03/13 08:20:01;;;;;;;17.92;9.95;;;;;;;;;;5021634;28;20194;-66
2022/03/13 08:22:26;;;;;;;20.27;10.13;;;;;;;;;;5027185;28;20178;-66
2022/03/13 08:24:51;;;;;;;18.30;9.90;;;;;;;;;;5028583;28;20236;-66
2022/03/13 08:27:17;;;;;;;19.15;9.70;;;;;;;;;;5027623;28;20196;-67
2022/03/13 08:29:42;;;;;;;15.88;9.15;;;;;;;;;;5022688;28;20328;-67
2022/03/13 08:32:08;;;;;;;16.33;8.75;;;;;;;;;;5040088;28;20193;-67
2022/03/13 08:34:37;;;;;;;17.63;10.38;;;;;;;;;;5028544;28;20178;-67
2022/03/13 08:37:03;;;;;;;23.98;9.20;;;;;;;;;;5033743;28;20263;-66
2022/03/13 08:39:28;;;;;;;20.90;9.25;;;;;;;;;;5041594;28;20272;-67
2022/03/13 08:41:54;;;;;;;17.02;8.73;;;;;;;;;;5036175;28;20269;-67
2022/03/13 08:44:19;;;;;;;14.93;8.77;;;;;;;;;;5032535;28;20296;-67
2022/03/13 08:46:44;;;;;;;13.25;8.40;;;;;;;;;;5024513;28;20190;-68
2022/03/13 08:49:12;;;;;;;15.23;8.65;;;;;;;;;;5019589;28;20189;-67
2022/03/13 08:51:37;;;;;;;14.93;7.82;;;;;;;;;;5019086;28;20193;-67
2022/03/13 08:54:03;;;;;;;14.18;8.90;;;;;;;;;;5020649;28;20191;-67
2022/03/13 08:56:29;;;;;;;16.77;9.02;;;;;;;;;;5018769;28;20191;-67
2022/03/13 08:58:55;;;;;;;16.13;8.48;;;;;;;;;;5018561;28;20186;-67
2022/03/13 09:01:22;;;;;;;15.45;8.65;;;;;;;;;;5022101;28;20296;-67
2022/03/13 09:03:48;;;;;;;14.68;8.70;;;;;;;;;;5021371;28;20263;-67
2022/03/13 09:06:13;;;;;;;13.55;8.27;;;;;;;;;;5022308;28;20189;-66
2022/03/13 09:08:38;;;;;;;15.15;8.82;;;;;;;;;;5025310;28;20588;-66
2022/03/13 09:11:04;;;;;;;14.93;8.10;;;;;;;;;;5021608;28;20625;-67
2022/03/13 09:13:29;;;;;;;17.63;9.00;;;;;;;;;;5025204;28;20181;-67
2022/03/13 09:15:56;;;;;;;13.95;8.27;;;;;;;;;;5022284;28;20554;-67
2022/03/13 09:18:23;;;;;;;16.17;8.70;;;;;;;;;;5036410;28;20186;-67
2022/03/13 09:20:49;;;;;;;16.95;8.38;;;;;;;;;;5032879;28;20189;-67
2022/03/13 09:23:14;;;;;;;15.45;8.02;;;;;;;;;;5027818;28;20211;-67
2022/03/13 09:25:39;;;;;;;15.90;8.60;;;;;;;;;;5036931;28;20281;-67
2022/03/13 09:28:05;;;;;;;16.73;8.77;;;;;;;;;;5030730;28;20669;-67
2022/03/13 09:30:30;;;;;;;15.70;9.23;;;;;;;;;;5025220;28;20209;-67
2022/03/13 09:32:56;;;;;;;14.88;8.40;;;;;;;;;;5026127;28;20568;-67
2022/03/13 09:35:22;;;;;;;16.20;8.95;;;;;;;;;;5017691;28;21649;-67
2022/03/13 09:37:49;;;;;;;20.27;9.32;;;;;;;;;;5013806;28;20269;-67
2022/03/13 09:40:19;;;;;;;14.65;8.90;;;;;;;;;;5019109;28;20179;-67
2022/03/13 09:42:47;;;;;;;15.65;8.98;;;;;;;;;;5024832;28;20197;-67
2022/03/13 09:45:13;;;;;;;16.73;9.10;;;;;;;;;;5026898;28;20583;-67
2022/03/13 09:47:39;;;;;;;18.23;8.82;;;;;;;;;;5034718;28;20194;-67
2022/03/13 09:50:07;;;;;;;15.95;8.75;;;;;;;;;;5027452;28;20196;-67
2022/03/13 09:52:33;;;;;;;15.18;8.68;;;;;;;;;;5018558;28;20265;-67
2022/03/13 09:55:00;;;;;;;17.17;9.00;;;;;;;;;;5037906;28;20192;-66
2022/03/13 09:57:25;;;;;;;14.50;8.80;;;;;;;;;;5043721;28;20364;-67
2022/03/13 09:59:51;;;;;;;14.00;8.65;;;;;;;;;;5043950;28;20419;-66
2022/03/13 10:02:16;;;;;;;14.85;9.35;;;;;;;;;;5032572;28;20277;-67
2022/03/13 10:04:42;;;;;;;19.40;9.23;;;;;;;;;;5040688;28;20363;-67
2022/03/13 10:07:12;;;;;;;15.15;8.90;;;;;;;;;;5040712;28;20189;-67
2022/03/13 10:09:40;;;;;;;18.10;9.13;;;;;;;;;;5042814;28;20751;-66
2022/03/13 10:12:19;;;;;;;17.35;8.60;;;;;;;;;;5043377;28;20560;-67
2022/03/13 10:15:05;;;;;;;15.90;8.90;;;;;;;;;;5041054;28;20185;-67
2022/03/13 10:17:33;;;;;;;16.77;9.45;;;;;;;;;;5043053;28;20289;-66
2022/03/13 10:20:20;;;;;;;19.48;9.38;;;;;;;;;;5038202;28;20185;-67
2022/03/13 10:23:04;;;;;;;15.05;8.82;;;;;;;;;;5043243;28;20196;-67
2022/03/13 10:25:35;;;;;;;16.80;8.75;;;;;;;;;;5043498;28;20177;-66
2022/03/13 10:28:19;;;;;;;14.52;8.90;;;;;;;;;;5043659;28;20182;-67
2022/03/13 10:30:47;;;;;;;15.80;9.25;;;;;;;;;;5028170;28;20202;-66
2022/03/13 10:33:13;;;;;;;15.20;9.63;;;;;;;;;;5032100;28;20178;-66
2022/03/13 10:35:39;;;;;;;18.67;9.57;;;;;;;;;;5035216;28;20186;-67
2022/03/13 10:38:19;;;;;;;16.92;9.32;;;;;;;;;;5039684;28;20209;-66
2022/03/13 10:40:50;;;;;;;13.77;9.07;;;;;;;;;;5036855;28;20235;-67
2022/03/13 10:43:19;;;;;;;17.80;9.20;;;;;;;;;;5039007;28;20185;-66
2022/03/13 10:45:53;;;;;;;14.93;9.07;;;;;;;;;;5023350;28;20190;-67
2022/03/13 10:48:22;;;;;;;17.00;9.85;;;;;;;;;;5036886;28;20197;-66
2022/03/13 10:51:07;;;;;;;17.65;9.24;;;;;;;;;;4997876;28;10001659;-67
2022/03/13 10:53:38;;;;;;;16.20;9.55;;;;;;;;;;5037240;28;20397;-67
2022/03/13 10:56:08;;;;;;;14.48;9.48;;;;;;;;;;5029355;28;20182;-66
2022/03/13 10:58:37;;;;;;;17.52;9.88;;;;;;;;;;5031960;28;20668;-66
2022/03/13 11:01:13;;;;;;;18.25;9.60;;;;;;;;;;5029058;28;20190;-66
2022/03/13 11:04:06;;;;;;;15.57;9.38;;;;;;;;;;5010873;28;20725;-67
2022/03/13 11:06:31;;;;;;;14.45;9.02;;;;;;;;;;5014342;28;20557;-66
2022/03/13 11:08:57;;;;;;;16.83;9.10;;;;;;;;;;5037105;28;20335;-66
2022/03/13 11:11:24;;;;;;;16.20;10.02;;;;;;;;;;5032533;28;20236;-67
2022/03/13 11:13:54;;;;;;;16.13;10.30;;;;;;;;;;5026417;28;20203;-67
2022/03/13 11:16:22;;;;;;;14.25;9.35;;;;;;;;;;5030404;28;20558;-66
2022/03/13 11:18:51;;;;;;;20.25;10.30;;;;;;;;;;5025685;28;20255;-67
2022/03/13 11:21:17;;;;;;;16.33;10.25;;;;;;;;;;5031328;28;20191;-66
2022/03/13 11:23:43;;;;;;;15.48;9.93;;;;;;;;;;5030707;28;20209;-66
2022/03/13 11:26:08;;;;;;;18.40;9.82;;;;;;;;;;5022210;28;20186;-66
2022/03/13 11:28:37;;;;;;;13.70;8.93;;;;;;;;;;5026129;28;20197;-67
2022/03/13 11:31:02;;;;;;;16.27;10.38;;;;;;;;;;5030068;28;20201;-67
2022/03/13 11:33:32;;;;;;;13.82;9.52;;;;;;;;;;5027725;28;20202;-67
2022/03/13 11:36:29;;;;;;;15.18;9.82;;;;;;;;;;5027234;28;20189;-66
2022/03/13 11:39:04;;;;;;;18.38;10.25;;;;;;;;;;5026155;28;20182;-67
2022/03/13 11:41:38;;;;;;;18.45;10.45;;;;;;;;;;5030361;28;20285;-66
2022/03/13 11:44:20;;;;;;;18.35;10.63;;;;;;;;;;5023191;28;20205;-66
2022/03/13 11:46:47;;;;;;;16.55;10.35;;;;;;;;;;5018131;28;20185;-66
2022/03/13 11:49:34;;;;;;;17.23;10.10;;;;;;;;;;5023695;28;20700;-66
2022/03/13 11:52:20;;;;;;;18.15;10.57;;;;;;;;;;5015068;28;20241;-66
2022/03/13 11:54:50;;;;;;;17.08;9.80;;;;;;;;;;5023152;28;20221;-66
2022/03/13 11:57:20;;;;;;;17.65;10.38;;;;;;;;;;5036976;28;20194;-66
2022/03/13 11:59:49;;;;;;;15.95;9.82;;;;;;;;;;5005483;28;20182;-67
2022/03/13 12:02:49;;;;;;;17.77;10.45;;;;;;;;;;5028584;28;20225;-66
2022/03/13 12:05:26;;;;;;;17.60;10.30;;;;;;;;;;5034614;28;20201;-66
2022/03/13 12:08:04;;;;;;;16.80;9.90;;;;;;;;;;5031045;28;20665;-66
2022/03/13 12:10:43;;;;;;;17.75;11.02;;;;;;;;;;5029866;28;20335;-66
2022/03/13 12:13:10;;;;;;;17.38;10.48;;;;;;;;;;5033055;28;20230;-67
2022/03/13 12:15:37;;;;;;;19.27;11.20;;;;;;;;;;5023379;28;20706;-67
2022/03/13 12:18:32;;;;;;;16.77;9.85;;;;;;;;;;5018111;28;20181;-70
2022/03/13 12:21:10;;;;;;;16.98;10.65;;;;;;;;;;5025623;28;20230;-67
2022/03/13 12:23:38;;;;;;;17.75;10.45;;;;;;;;;;5033540;28;20205;-66
2022/03/13 12:26:28;;;;;;;16.35;10.55;;;;;;;;;;5025393;28;20661;-67
2022/03/13 12:28:59;;;;;;;17.33;11.00;;;;;;;;;;5033981;28;20258;-67
2022/03/13 12:31:25;;;;;;;18.92;10.55;;;;;;;;;;5036169;28;20711;-66
2022/03/13 12:33:58;;;;;;;15.38;9.90;;;;;;;;;;5045855;28;20201;-66
2022/03/13 12:36:34;;;;;;;17.27;10.80;;;;;;;;;;5037741;28;20204;-66
2022/03/13 12:38:59;;;;;;;20.25;10.40;;;;;;;;;;5039582;28;20177;-66
2022/03/13 12:41:25;;;;;;;16.08;10.10;;;;;;;;;;5036067;28;20191;-66
2022/03/13 12:43:54;;;;;;;15.63;9.48;;;;;;;;;;5039436;28;20228;-66
2022/03/13 12:46:22;;;;;;;15.25;9.80;;;;;;;;;;5029657;28;20193;-67
2022/03/13 12:48:55;;;;;;;16.05;10.00;;;;;;;;;;5042421;28;20492;-66
2022/03/13 12:51:34;;;;;;;17.10;9.77;;;;;;;;;;5029792;28;20206;-66
2022/03/13 12:54:02;;;;;;;12.18;9.05;;;;;;;;;;5009980;28;20217;-66
2022/03/13 12:56:29;;;;;;;15.70;9.85;;;;;;;;;;5014335;28;20216;-66
2022/03/13 12:58:54;;;;;;;15.43;10.32;;;;;;;;;;5024605;28;20178;-66
2022/03/13 13:01:21;;;;;;;16.65;10.13;;;;;;;;;;5026773;28;20200;-66
2022/03/13 13:03:50;;;;;;;13.95;9.68;;;;;;;;;;5028399;28;20206;-66
2022/03/13 13:06:30;;;;;;;12.88;8.20;;;;;;;;;;5019395;28;20193;-67
2022/03/13 13:08:55;;;;;;;13.45;7.80;;;;;;;;;;5037211;28;20309;-67
2022/03/13 13:11:35;;;;;;;11.77;7.85;;;;;;;;;;5021843;28;20271;-67
2022/03/13 13:14:02;;;;;;;15.70;9.27;;;;;;;;;;5020925;28;20532;-66
2022/03/13 13:16:31;;;;;;;14.07;8.73;;;;;;;;;;5025391;28;20180;-66
2022/03/13 13:19:00;;;;;;;12.82;8.52;;;;;;;;;;5029341;28;20182;-66
2022/03/13 13:21:33;;;;;;;13.05;8.75;;;;;;;;;;5025757;28;20189;-67
2022/03/13 13:23:58;;;;;;;15.32;9.35;;;;;;;;;;5028739;28;20700;-66
2022/03/13 13:26:40;;;;;;;15.10;8.88;;;;;;;;;;5029226;28;20688;-66
2022/03/13 13:29:05;;;;;;;13.73;9.10;;;;;;;;;;5032133;28;20200;-65
2022/03/13 13:31:30;;;;;;;14.48;9.07;;;;;;;;;;5012204;28;20219;-66
2022/03/13 13:33:56;;;;;;;16.02;9.05;;;;;;;;;;5030871;28;20208;-67
2022/03/13 13:36:21;;;;;;;13.93;9.50;;;;;;;;;;5029370;28;20209;-66
2022/03/13 13:38:47;;;;;;;13.68;8.75;;;;;;;;;;5028474;28;20213;-66
2022/03/13 13:41:22;;;;;;;14.95;9.13;;;;;;;;;;5030557;28;20178;-66
2022/03/13 13:43:47;;;;;;;15.32;9.57;;;;;;;;;;5030248;28;20204;-67
2022/03/13 13:46:15;;;;;;;13.93;9.32;;;;;;;;;;5029081;28;20189;-67
2022/03/13 13:48:47;;;;;;;13.05;9.02;;;;;;;;;;5030220;28;20175;-66
2022/03/13 13:51:19;;;;;;;16.65;10.00;;;;;;;;;;5033316;28;20185;-66
2022/03/13 13:53:57;;;;;;;15.70;9.57;;;;;;;;;;5035806;28;20182;-66
2022/03/13 13:56:39;;;;;;;14.10;9.38;;;;;;;;;;5024401;28;20193;-66
2022/03/13 13:59:22;;;;;;;12.85;9.10;;;;;;;;;;5021876;28;20645;-66
2022/03/13 14:02:13;;;;;;;14.00;9.00;;;;;;;;;;5032110;28;20182;-66
2022/03/13 14:04:39;;;;;;;13.00;8.85;;;;;;;;;;5026753;28;20210;-66
2022/03/13 14:07:06;;;;;;;12.32;8.35;;;;;;;;;;5026580;28;20178;-67
2022/03/13 14:09:31;;;;;;;16.63;8.93;;;;;;;;;;5032389;28;20312;-66
2022/03/13 14:11:57;;;;;;;15.18;9.60;;;;;;;;;;5025656;28;20636;-67
2022/03/13 14:14:23;;;;;;;14.10;9.68;;;;;;;;;;5025142;28;20189;-67
2022/03/13 14:16:48;;;;;;;17.00;10.07;;;;;;;;;;5023998;28;20190;-66
2022/03/13 14:19:14;;;;;;;15.73;10.10;;;;;;;;;;5040177;28;20185;-66
2022/03/13 14:21:40;;;;;;;19.65;9.65;;;;;;;;;;5039702;28;20182;-66
2022/03/13 14:24:06;;;;;;;14.88;9.45;;;;;;;;;;5046021;28;20193;-66
2022/03/13 14:26:32;;;;;;;16.00;9.40;;;;;;;;;;5039329;28;20189;-66